EXS7TN EHRD-EGNM
Flight info
| Callsign | EXS7TN |
|---|---|
| Flight time | 0h 53m |
| Altitude | 34000 |
| Route | TULIP L74 MONIL DCT ENZEN L60 OTBED Y70 SIVBU |
| Aircraft | B738/M-SDE2E3FGHIRWXY/LB1 |
Departure
| Time | 2026-05-06 10:40 |
|---|---|
| Airport | Rotterdam The Hague Airport (EHRD) |
Arrival
| Time | 2026-05-06 11:34 |
|---|---|
| Airport | Leeds Bradford Airport (EGNM) |
| Time | Latitude | Longitude | Altitude | Speed | Heading |
|---|---|---|---|---|---|
| 2026-05-06 10:20 | 51.95140 | 4.43294 | -6 ft | 0 kts | 327° |
| 2026-05-06 10:36 | 51.95152 | 4.43281 | -6 ft | 5 kts | 327° |
| 2026-05-06 10:36 | 51.95163 | 4.43207 | -6 ft | 11 kts | 242° |
| 2026-05-06 10:37 | 51.95126 | 4.43082 | -6 ft | 13 kts | 245° |
| 2026-05-06 10:37 | 51.95110 | 4.43021 | -6 ft | 0 kts | 258° |
| 2026-05-06 10:39 | 51.95109 | 4.43013 | -6 ft | 3 kts | 259° |
| 2026-05-06 10:39 | 51.95127 | 4.42933 | -6 ft | 14 kts | 321° |
| 2026-05-06 10:39 | 51.95194 | 4.42863 | -6 ft | 8 kts | 328° |
| 2026-05-06 10:39 | 51.95220 | 4.42858 | -6 ft | 3 kts | 33° |
| 2026-05-06 10:40 | 51.95263 | 4.42966 | -6 ft | 40 kts | 57° |
| 2026-05-06 10:40 | 51.95621 | 4.43858 | 16 ft | 143 kts | 57° |
| 2026-05-06 10:40 | 51.96030 | 4.44881 | 609 ft | 160 kts | 54° |
| 2026-05-06 10:40 | 51.96560 | 4.46232 | 1887 ft | 153 kts | 57° |
| 2026-05-06 10:41 | 51.97112 | 4.47755 | 2990 ft | 171 kts | 58° |
| 2026-05-06 10:41 | 51.97758 | 4.49577 | 3437 ft | 205 kts | 59° |
| 2026-05-06 10:41 | 51.98697 | 4.51340 | 4172 ft | 212 kts | 32° |
| 2026-05-06 10:41 | 52.00088 | 4.52091 | 4674 ft | 217 kts | 4° |
| 2026-05-06 10:42 | 52.01587 | 4.51620 | 4987 ft | 226 kts | 337° |
| 2026-05-06 10:42 | 52.02801 | 4.49967 | 5855 ft | 232 kts | 309° |
| 2026-05-06 10:42 | 52.03420 | 4.47563 | 7141 ft | 235 kts | 282° |
| 2026-05-06 10:42 | 52.03253 | 4.44907 | 8190 ft | 246 kts | 250° |
| 2026-05-06 10:43 | 52.02556 | 4.42248 | 8867 ft | 271 kts | 249° |
| 2026-05-06 10:43 | 52.01820 | 4.39318 | 9635 ft | 286 kts | 250° |
| 2026-05-06 10:43 | 52.01054 | 4.36277 | 10473 ft | 299 kts | 249° |
| 2026-05-06 10:44 | 51.99543 | 4.29719 | 12185 ft | 318 kts | 264° |
| 2026-05-06 10:44 | 51.99811 | 4.26198 | 13325 ft | 319 kts | 292° |
| 2026-05-06 10:44 | 52.01025 | 4.23168 | 14335 ft | 325 kts | 313° |
| 2026-05-06 10:44 | 52.02798 | 4.20863 | 15370 ft | 330 kts | 326° |
| 2026-05-06 10:45 | 52.04746 | 4.18833 | 16405 ft | 336 kts | 328° |
| 2026-05-06 10:45 | 52.06754 | 4.16822 | 17349 ft | 343 kts | 328° |
| 2026-05-06 10:45 | 52.08805 | 4.14771 | 18340 ft | 349 kts | 328° |
| 2026-05-06 10:45 | 52.10887 | 4.12668 | 19202 ft | 355 kts | 327° |
| 2026-05-06 10:46 | 52.12989 | 4.10523 | 20115 ft | 359 kts | 327° |
| 2026-05-06 10:46 | 52.15118 | 4.08332 | 21012 ft | 364 kts | 326° |
| 2026-05-06 10:46 | 52.17266 | 4.06109 | 21871 ft | 369 kts | 326° |
| 2026-05-06 10:46 | 52.19446 | 4.03844 | 22719 ft | 374 kts | 325° |
| 2026-05-06 10:47 | 52.21657 | 4.01542 | 23553 ft | 379 kts | 325° |
| 2026-05-06 10:47 | 52.23901 | 3.99201 | 24161 ft | 387 kts | 326° |
| 2026-05-06 10:47 | 52.26184 | 3.96819 | 24828 ft | 391 kts | 325° |
| 2026-05-06 10:47 | 52.28478 | 3.94422 | 25704 ft | 390 kts | 326° |
| 2026-05-06 10:48 | 52.30751 | 3.92046 | 26664 ft | 387 kts | 326° |
| 2026-05-06 10:48 | 52.33020 | 3.89671 | 27448 ft | 389 kts | 325° |
| 2026-05-06 10:48 | 52.35319 | 3.87326 | 28253 ft | 391 kts | 329° |
| 2026-05-06 10:48 | 52.37816 | 3.85546 | 29076 ft | 392 kts | 340° |
| 2026-05-06 10:49 | 52.40447 | 3.84515 | 30105 ft | 387 kts | 349° |
| 2026-05-06 10:49 | 52.43097 | 3.83783 | 30882 ft | 386 kts | 350° |
| 2026-05-06 10:49 | 52.45759 | 3.83096 | 31457 ft | 388 kts | 349° |
| 2026-05-06 10:49 | 52.48429 | 3.82405 | 32168 ft | 386 kts | 349° |
| 2026-05-06 10:50 | 52.51058 | 3.81707 | 33061 ft | 380 kts | 349° |
| 2026-05-06 10:50 | 52.53666 | 3.80998 | 33648 ft | 381 kts | 349° |
| 2026-05-06 10:50 | 52.56252 | 3.80282 | 33939 ft | 384 kts | 349° |
| 2026-05-06 10:51 | 52.61516 | 3.78808 | 33931 ft | 381 kts | 348° |
| 2026-05-06 10:51 | 52.66717 | 3.77346 | 33936 ft | 378 kts | 348° |
| 2026-05-06 10:52 | 52.71883 | 3.75892 | 33942 ft | 376 kts | 348° |
| 2026-05-06 10:52 | 52.74420 | 3.74893 | 33922 ft | 374 kts | 334° |
| 2026-05-06 10:52 | 52.76615 | 3.72686 | 33945 ft | 368 kts | 316° |
| 2026-05-06 10:52 | 52.78292 | 3.69549 | 33946 ft | 365 kts | 302° |
| 2026-05-06 10:53 | 52.79702 | 3.66046 | 33947 ft | 368 kts | 300° |
| 2026-05-06 10:53 | 52.81108 | 3.62411 | 33969 ft | 383 kts | 300° |
| 2026-05-06 10:53 | 52.82566 | 3.58627 | 33966 ft | 397 kts | 300° |
| 2026-05-06 10:53 | 52.84083 | 3.54723 | 33965 ft | 410 kts | 301° |
| 2026-05-06 10:54 | 52.85658 | 3.50709 | 33970 ft | 422 kts | 301° |
| 2026-05-06 10:54 | 52.88378 | 3.43821 | 33956 ft | 435 kts | 301° |
| 2026-05-06 10:55 | 52.91679 | 3.35477 | 33946 ft | 431 kts | 301° |
| 2026-05-06 10:55 | 52.94944 | 3.27188 | 33943 ft | 428 kts | 300° |
| 2026-05-06 10:56 | 52.98007 | 3.18770 | 33953 ft | 423 kts | 291° |
| 2026-05-06 10:56 | 52.99856 | 3.09577 | 33956 ft | 419 kts | 284° |
| 2026-05-06 10:57 | 53.01544 | 3.00320 | 33968 ft | 419 kts | 285° |
| 2026-05-06 10:57 | 53.03263 | 2.91059 | 33964 ft | 420 kts | 285° |
| 2026-05-06 10:58 | 53.04999 | 2.81793 | 33964 ft | 420 kts | 285° |
| 2026-05-06 10:58 | 53.06734 | 2.72506 | 33966 ft | 421 kts | 285° |
| 2026-05-06 10:59 | 53.08451 | 2.63270 | 33972 ft | 421 kts | 285° |
| 2026-05-06 10:59 | 53.10173 | 2.53956 | 33972 ft | 421 kts | 285° |
| 2026-05-06 11:00 | 53.11490 | 2.44488 | 33975 ft | 419 kts | 277° |
| 2026-05-06 11:00 | 53.12239 | 2.34864 | 33973 ft | 419 kts | 276° |
| 2026-05-06 11:01 | 53.12960 | 2.25243 | 33973 ft | 419 kts | 276° |
| 2026-05-06 11:01 | 53.13709 | 2.15626 | 33973 ft | 419 kts | 276° |
| 2026-05-06 11:02 | 53.14471 | 2.06018 | 33975 ft | 418 kts | 276° |
| 2026-05-06 11:02 | 53.15230 | 1.96409 | 33981 ft | 418 kts | 276° |
| 2026-05-06 11:03 | 53.15981 | 1.86810 | 33981 ft | 418 kts | 276° |
| 2026-05-06 11:03 | 53.16719 | 1.77275 | 33983 ft | 417 kts | 276° |
| 2026-05-06 11:04 | 53.17451 | 1.67693 | 33984 ft | 417 kts | 276° |
| 2026-05-06 11:04 | 53.18174 | 1.58143 | 33970 ft | 408 kts | 276° |
| 2026-05-06 11:04 | 53.18521 | 1.53541 | 33926 ft | 394 kts | 276° |
| 2026-05-06 11:05 | 53.18857 | 1.49051 | 33617 ft | 385 kts | 276° |
| 2026-05-06 11:05 | 53.19184 | 1.44650 | 33206 ft | 380 kts | 276° |
| 2026-05-06 11:05 | 53.19504 | 1.40320 | 32824 ft | 375 kts | 276° |
| 2026-05-06 11:05 | 53.19819 | 1.36032 | 32424 ft | 371 kts | 276° |
| 2026-05-06 11:06 | 53.20129 | 1.31777 | 32006 ft | 368 kts | 276° |
| 2026-05-06 11:06 | 53.20436 | 1.27555 | 31597 ft | 365 kts | 276° |
| 2026-05-06 11:06 | 53.20739 | 1.23374 | 31208 ft | 362 kts | 276° |
| 2026-05-06 11:06 | 53.21038 | 1.19215 | 30815 ft | 360 kts | 276° |
| 2026-05-06 11:07 | 53.21334 | 1.15092 | 30434 ft | 357 kts | 276° |
| 2026-05-06 11:07 | 53.21627 | 1.10984 | 30049 ft | 355 kts | 276° |
| 2026-05-06 11:07 | 53.21916 | 1.06911 | 29600 ft | 353 kts | 276° |
| 2026-05-06 11:07 | 53.22202 | 1.02869 | 29198 ft | 349 kts | 276° |
| 2026-05-06 11:08 | 53.22482 | 0.98874 | 28807 ft | 344 kts | 276° |
| 2026-05-06 11:08 | 53.22758 | 0.94931 | 28409 ft | 341 kts | 276° |
| 2026-05-06 11:08 | 53.23030 | 0.91026 | 28022 ft | 337 kts | 276° |
| 2026-05-06 11:08 | 53.23298 | 0.87164 | 27633 ft | 333 kts | 275° |
| 2026-05-06 11:09 | 53.23562 | 0.83334 | 27238 ft | 330 kts | 275° |
| 2026-05-06 11:09 | 53.23822 | 0.79543 | 26860 ft | 328 kts | 275° |
| 2026-05-06 11:09 | 53.24080 | 0.75774 | 26469 ft | 325 kts | 275° |
| 2026-05-06 11:09 | 53.24330 | 0.72086 | 26086 ft | 324 kts | 275° |
| 2026-05-06 11:10 | 53.24582 | 0.68366 | 25709 ft | 321 kts | 275° |
| 2026-05-06 11:10 | 53.24831 | 0.64670 | 25338 ft | 319 kts | 275° |
| 2026-05-06 11:10 | 53.25077 | 0.60999 | 24975 ft | 317 kts | 275° |
| 2026-05-06 11:10 | 53.25321 | 0.57346 | 24623 ft | 315 kts | 275° |
| 2026-05-06 11:11 | 53.25561 | 0.53723 | 24254 ft | 313 kts | 275° |
| 2026-05-06 11:11 | 53.25799 | 0.50119 | 23898 ft | 312 kts | 275° |
| 2026-05-06 11:11 | 53.26036 | 0.46515 | 23516 ft | 311 kts | 275° |
| 2026-05-06 11:11 | 53.26271 | 0.42926 | 23081 ft | 310 kts | 275° |
| 2026-05-06 11:12 | 53.26504 | 0.39359 | 22710 ft | 308 kts | 275° |
| 2026-05-06 11:12 | 53.26734 | 0.35815 | 22343 ft | 305 kts | 275° |
| 2026-05-06 11:12 | 53.26960 | 0.32317 | 21994 ft | 302 kts | 275° |
| 2026-05-06 11:12 | 53.27183 | 0.28846 | 21631 ft | 299 kts | 275° |
| 2026-05-06 11:13 | 53.27403 | 0.25405 | 21291 ft | 296 kts | 275° |
| 2026-05-06 11:13 | 53.27620 | 0.22001 | 20938 ft | 294 kts | 275° |
| 2026-05-06 11:13 | 53.27835 | 0.18616 | 20582 ft | 292 kts | 275° |
| 2026-05-06 11:13 | 53.28048 | 0.15248 | 20234 ft | 291 kts | 275° |
| 2026-05-06 11:14 | 53.28259 | 0.11900 | 19895 ft | 289 kts | 276° |
| 2026-05-06 11:14 | 53.28467 | 0.08557 | 19544 ft | 291 kts | 276° |
| 2026-05-06 11:14 | 53.28682 | 0.05174 | 19204 ft | 294 kts | 277° |
| 2026-05-06 11:14 | 53.29171 | 0.01894 | 18908 ft | 296 kts | 290° |
| 2026-05-06 11:15 | 53.30030 | -0.01265 | 18657 ft | 296 kts | 295° |
| 2026-05-06 11:15 | 53.30942 | -0.04338 | 18305 ft | 301 kts | 296° |
| 2026-05-06 11:15 | 53.31875 | -0.07453 | 17892 ft | 299 kts | 296° |
| 2026-05-06 11:15 | 53.32800 | -0.10555 | 17529 ft | 296 kts | 295° |
| 2026-05-06 11:16 | 53.33704 | -0.13618 | 17186 ft | 292 kts | 295° |
| 2026-05-06 11:16 | 53.34594 | -0.16655 | 16847 ft | 290 kts | 295° |
| 2026-05-06 11:16 | 53.35478 | -0.19684 | 16472 ft | 290 kts | 295° |
| 2026-05-06 11:16 | 53.36361 | -0.22723 | 16097 ft | 289 kts | 296° |
| 2026-05-06 11:17 | 53.37239 | -0.25744 | 15742 ft | 288 kts | 296° |
| 2026-05-06 11:17 | 53.38110 | -0.28750 | 15395 ft | 286 kts | 296° |
| 2026-05-06 11:17 | 53.38972 | -0.31732 | 15072 ft | 283 kts | 296° |
| 2026-05-06 11:17 | 53.39830 | -0.34704 | 14717 ft | 282 kts | 296° |
| 2026-05-06 11:18 | 53.40685 | -0.37666 | 14344 ft | 282 kts | 296° |
| 2026-05-06 11:18 | 53.41536 | -0.40616 | 13987 ft | 282 kts | 296° |
| 2026-05-06 11:18 | 53.42388 | -0.43574 | 13612 ft | 281 kts | 296° |
| 2026-05-06 11:18 | 53.43234 | -0.46512 | 13218 ft | 279 kts | 296° |
| 2026-05-06 11:19 | 53.44076 | -0.49438 | 12916 ft | 278 kts | 296° |
| 2026-05-06 11:19 | 53.44910 | -0.52344 | 12602 ft | 274 kts | 296° |
| 2026-05-06 11:19 | 53.45730 | -0.55206 | 12262 ft | 272 kts | 296° |
| 2026-05-06 11:19 | 53.46545 | -0.58049 | 11933 ft | 269 kts | 296° |
| 2026-05-06 11:20 | 53.47400 | -0.60830 | 11609 ft | 267 kts | 298° |
| 2026-05-06 11:20 | 53.48278 | -0.63565 | 11288 ft | 266 kts | 299° |
| 2026-05-06 11:20 | 53.49159 | -0.66289 | 10948 ft | 265 kts | 298° |
| 2026-05-06 11:20 | 53.50037 | -0.69011 | 10608 ft | 265 kts | 298° |
| 2026-05-06 11:21 | 53.50913 | -0.71734 | 10271 ft | 265 kts | 298° |
| 2026-05-06 11:21 | 53.51777 | -0.74428 | 10108 ft | 258 kts | 298° |
| 2026-05-06 11:21 | 53.52628 | -0.77091 | 9763 ft | 259 kts | 298° |
| 2026-05-06 11:21 | 53.53476 | -0.79751 | 9431 ft | 258 kts | 299° |
| 2026-05-06 11:22 | 53.54319 | -0.82401 | 9105 ft | 257 kts | 299° |
| 2026-05-06 11:22 | 53.55159 | -0.85044 | 8790 ft | 256 kts | 299° |
| 2026-05-06 11:22 | 53.55997 | -0.87684 | 8472 ft | 255 kts | 299° |
| 2026-05-06 11:22 | 53.56831 | -0.90316 | 8149 ft | 255 kts | 299° |
| 2026-05-06 11:23 | 53.57662 | -0.92943 | 7840 ft | 254 kts | 300° |
| 2026-05-06 11:23 | 53.58493 | -0.95571 | 7528 ft | 254 kts | 301° |
| 2026-05-06 11:23 | 53.59322 | -0.98197 | 7224 ft | 254 kts | 301° |
| 2026-05-06 11:23 | 53.60152 | -1.00828 | 6894 ft | 255 kts | 301° |
| 2026-05-06 11:24 | 53.60983 | -1.03468 | 6564 ft | 255 kts | 301° |
| 2026-05-06 11:24 | 53.61815 | -1.06106 | 6216 ft | 256 kts | 301° |
| 2026-05-06 11:24 | 53.62649 | -1.08760 | 5887 ft | 256 kts | 302° |
| 2026-05-06 11:24 | 53.63482 | -1.11413 | 5551 ft | 256 kts | 302° |
| 2026-05-06 11:25 | 53.64309 | -1.14053 | 5234 ft | 255 kts | 302° |
| 2026-05-06 11:25 | 53.65139 | -1.16700 | 4945 ft | 253 kts | 301° |
| 2026-05-06 11:25 | 53.65943 | -1.19275 | 4824 ft | 245 kts | 300° |
| 2026-05-06 11:25 | 53.66714 | -1.21747 | 4693 ft | 237 kts | 300° |
| 2026-05-06 11:26 | 53.67471 | -1.24169 | 4597 ft | 230 kts | 300° |
| 2026-05-06 11:26 | 53.68205 | -1.26522 | 4494 ft | 223 kts | 301° |
| 2026-05-06 11:26 | 53.68918 | -1.28811 | 4397 ft | 218 kts | 301° |
| 2026-05-06 11:26 | 53.69613 | -1.31044 | 4297 ft | 212 kts | 302° |
| 2026-05-06 11:27 | 53.70288 | -1.33212 | 4217 ft | 205 kts | 302° |
| 2026-05-06 11:27 | 53.70932 | -1.35289 | 4138 ft | 194 kts | 301° |
| 2026-05-06 11:27 | 53.71539 | -1.37244 | 4092 ft | 181 kts | 301° |
| 2026-05-06 11:27 | 53.72117 | -1.39101 | 4095 ft | 179 kts | 301° |
| 2026-05-06 11:28 | 53.72693 | -1.40954 | 4096 ft | 178 kts | 301° |
| 2026-05-06 11:28 | 53.73260 | -1.42782 | 4086 ft | 177 kts | 301° |
| 2026-05-06 11:28 | 53.73589 | -1.43843 | 3893 ft | 179 kts | 301° |
| 2026-05-06 11:29 | 53.73817 | -1.44573 | 3882 ft | 178 kts | 298° |
| 2026-05-06 11:29 | 53.74382 | -1.46405 | 3776 ft | 175 kts | 298° |
| 2026-05-06 11:29 | 53.75003 | -1.48148 | 3553 ft | 172 kts | 313° |
| 2026-05-06 11:29 | 53.75867 | -1.49466 | 3362 ft | 164 kts | 317° |
| 2026-05-06 11:30 | 53.76679 | -1.50746 | 3133 ft | 154 kts | 317° |
| 2026-05-06 11:30 | 53.77446 | -1.51946 | 2939 ft | 147 kts | 317° |
| 2026-05-06 11:30 | 53.78181 | -1.53084 | 2740 ft | 140 kts | 317° |
| 2026-05-06 11:30 | 53.78889 | -1.54179 | 2560 ft | 137 kts | 317° |
| 2026-05-06 11:31 | 53.79595 | -1.55269 | 2388 ft | 138 kts | 317° |
| 2026-05-06 11:31 | 53.80303 | -1.56363 | 2202 ft | 138 kts | 317° |
| 2026-05-06 11:31 | 53.81002 | -1.57440 | 2041 ft | 130 kts | 317° |
| 2026-05-06 11:31 | 53.81654 | -1.58447 | 1849 ft | 125 kts | 317° |
| 2026-05-06 11:32 | 53.82298 | -1.59441 | 1688 ft | 127 kts | 317° |
| 2026-05-06 11:32 | 53.82948 | -1.60444 | 1517 ft | 126 kts | 317° |
| 2026-05-06 11:32 | 53.83585 | -1.61427 | 1354 ft | 126 kts | 317° |
| 2026-05-06 11:32 | 53.84231 | -1.62422 | 1185 ft | 125 kts | 317° |
| 2026-05-06 11:33 | 53.84874 | -1.63415 | 1021 ft | 125 kts | 317° |
| 2026-05-06 11:33 | 53.85535 | -1.64439 | 851 ft | 133 kts | 317° |
| 2026-05-06 11:33 | 53.86200 | -1.65460 | 680 ft | 127 kts | 318° |
| 2026-05-06 11:33 | 53.86751 | -1.66301 | 667 ft | 58 kts | 318° |
| 2026-05-06 11:34 | 53.86920 | -1.66561 | 670 ft | 10 kts | 318° |
| 2026-05-06 11:34 | 53.86968 | -1.66565 | 671 ft | 6 kts | 43° |
| 2026-05-06 11:34 | 53.86972 | -1.66559 | 670 ft | 7 kts | 44° |
| 2026-05-06 11:34 | 53.86988 | -1.66526 | 672 ft | 9 kts | 57° |
| 2026-05-06 11:35 | 53.86977 | -1.66383 | 668 ft | 18 kts | 119° |
| 2026-05-06 11:35 | 53.86881 | -1.66189 | 666 ft | 22 kts | 139° |
| 2026-05-06 11:35 | 53.86816 | -1.66041 | 665 ft | 15 kts | 93° |
| 2026-05-06 11:35 | 53.86813 | -1.65870 | 664 ft | 14 kts | 91° |
| 2026-05-06 11:36 | 53.86817 | -1.65706 | 664 ft | 14 kts | 90° |
| 2026-05-06 11:36 | 53.86814 | -1.65535 | 663 ft | 15 kts | 91° |
| 2026-05-06 11:36 | 53.86826 | -1.65371 | 661 ft | 12 kts | 75° |
| 2026-05-06 11:36 | 53.86826 | -1.65300 | 661 ft | 4 kts | 80° |
| 2026-05-06 11:37 | 53.86850 | -1.65280 | 663 ft | 4 kts | 9° |
| 2026-05-06 11:37 | 53.86873 | -1.65279 | 664 ft | 0 kts | 1° |
| 2026-05-06 11:37 | 53.86874 | -1.65279 | 664 ft | 0 kts | 1° |